createdAt,value
2022-12-11T00:00:45.246Z,89.08
2022-12-11T00:03:15.808Z,88.77
2022-12-11T00:05:42.937Z,88.99
2022-12-11T00:08:09.566Z,88.37
2022-12-11T00:10:38.054Z,88.83
2022-12-11T00:13:05.604Z,88.66
2022-12-11T00:15:34.745Z,88.25
2022-12-11T00:18:01.263Z,88.07
2022-12-11T00:20:27.822Z,87.82
2022-12-11T00:22:54.329Z,87.59
2022-12-11T00:25:20.869Z,87.47
2022-12-11T00:27:47.558Z,87.83
2022-12-11T00:30:14.778Z,87.67
2022-12-11T00:32:41.283Z,87.62
2022-12-11T00:35:08.517Z,87.75
2022-12-11T00:37:35.573Z,88.49
2022-12-11T00:40:02.267Z,88.47
2022-12-11T00:42:28.892Z,88.19
2022-12-11T00:44:56.400Z,88.47
2022-12-11T00:47:23.004Z,89.00
2022-12-11T00:49:50.218Z,89.25
2022-12-11T00:52:18.157Z,89.73
2022-12-11T00:54:44.988Z,90.10
2022-12-11T00:57:11.672Z,90.62
2022-12-11T00:59:38.382Z,91.25
2022-12-11T01:02:04.871Z,91.26
2022-12-11T01:04:31.455Z,91.26
2022-12-11T01:07:00.738Z,91.03
2022-12-11T01:09:45.777Z,91.26
2022-12-11T01:12:12.391Z,91.51
2022-12-11T01:14:38.911Z,91.22
2022-12-11T01:17:05.453Z,91.13
2022-12-11T01:19:31.996Z,90.78
2022-12-11T01:21:58.506Z,90.90
2022-12-11T01:24:24.995Z,91.05
2022-12-11T01:26:51.486Z,90.53
2022-12-11T01:29:17.992Z,90.75
2022-12-11T01:31:44.612Z,90.95
2022-12-11T01:34:11.080Z,91.05
2022-12-11T01:36:37.684Z,90.83
2022-12-11T01:39:04.228Z,90.71
2022-12-11T01:41:30.911Z,91.43
2022-12-11T01:44:00.563Z,91.51
2022-12-11T01:46:27.756Z,91.83
2022-12-11T01:48:54.712Z,92.50
2022-12-11T01:51:21.862Z,93.06
2022-12-11T01:53:55.569Z,93.85
2022-12-11T01:56:22.198Z,94.60
2022-12-11T01:58:57.547Z,95.70
2022-12-11T02:01:27.015Z,97.51
2022-12-11T02:03:54.777Z,98.92
2022-12-11T02:06:35.860Z,100.00
2022-12-11T02:09:02.918Z,100.00
2022-12-11T02:11:39.986Z,100.00
2022-12-11T02:14:28.073Z,100.00
2022-12-11T02:17:13.605Z,100.00
2022-12-11T02:19:49.339Z,100.00
2022-12-11T02:22:22.530Z,100.00
2022-12-11T02:25:04.764Z,100.00
2022-12-11T02:27:41.572Z,100.00
2022-12-11T02:30:09.474Z,100.00
2022-12-11T02:32:45.176Z,100.00
2022-12-11T02:35:11.900Z,100.00
2022-12-11T02:37:41.174Z,100.00
2022-12-11T02:40:09.231Z,100.00
2022-12-11T02:42:37.969Z,100.00
2022-12-11T02:45:05.609Z,100.00
2022-12-11T02:47:33.203Z,100.00
2022-12-11T02:50:02.086Z,100.00
2022-12-11T02:52:30.994Z,100.00
2022-12-11T02:54:59.212Z,100.00
2022-12-11T02:57:52.264Z,100.00
2022-12-11T03:00:19.329Z,100.00
2022-12-11T03:02:46.163Z,100.00
2022-12-11T03:05:13.701Z,100.00
2022-12-11T03:07:41.702Z,100.00
2022-12-11T03:10:09.848Z,100.00
2022-12-11T03:12:39.256Z,99.25
2022-12-11T03:15:07.821Z,99.03
2022-12-11T03:17:54.862Z,98.27
2022-12-11T03:20:34.606Z,97.43
2022-12-11T03:23:04.265Z,95.88
2022-12-11T03:26:00.346Z,94.96
2022-12-11T03:28:49.951Z,94.09
2022-12-11T03:31:29.759Z,92.93
2022-12-11T03:33:58.459Z,92.74
2022-12-11T03:36:27.904Z,91.94
2022-12-11T03:38:57.913Z,91.34
2022-12-11T03:41:26.925Z,91.50
2022-12-11T03:43:54.552Z,92.51
2022-12-11T03:46:23.159Z,92.48
2022-12-11T03:48:50.589Z,92.01
2022-12-11T03:51:17.587Z,91.21
2022-12-11T03:53:45.477Z,91.12
2022-12-11T03:56:16.741Z,89.77
2022-12-11T03:58:43.500Z,89.91
2022-12-11T04:01:11.176Z,89.19
2022-12-11T04:03:38.167Z,88.32
2022-12-11T04:06:04.876Z,87.28
2022-12-11T04:08:31.491Z,86.80
2022-12-11T04:11:16.641Z,86.62
2022-12-11T04:13:43.272Z,86.19
2022-12-11T04:16:09.885Z,85.64
2022-12-11T04:19:09.019Z,85.43
2022-12-11T04:21:54.231Z,85.32
2022-12-11T04:24:23.681Z,85.41
2022-12-11T04:26:50.342Z,85.47
2022-12-11T04:29:16.868Z,84.71
2022-12-11T04:31:43.547Z,84.98
2022-12-11T04:34:10.060Z,84.81
2022-12-11T04:36:36.723Z,85.09
2022-12-11T04:39:04.626Z,86.22
2022-12-11T04:41:31.929Z,85.43
2022-12-11T04:44:00.783Z,86.19
2022-12-11T04:46:27.395Z,87.01
2022-12-11T04:48:57.351Z,87.91
2022-12-11T04:51:24.584Z,88.52
2022-12-11T04:53:51.093Z,89.24
2022-12-11T04:56:17.841Z,90.31
2022-12-11T04:58:44.993Z,91.24
2022-12-11T05:01:13.617Z,91.72
2022-12-11T05:03:40.656Z,92.63
2022-12-11T05:06:08.093Z,93.66
2022-12-11T05:08:36.003Z,95.00
2022-12-11T05:11:03.830Z,96.81
2022-12-11T05:13:30.579Z,98.15
2022-12-11T05:15:57.482Z,99.82
2022-12-11T05:18:24.226Z,100.00
2022-12-11T05:21:04.861Z,100.00
2022-12-11T05:23:31.762Z,100.00
2022-12-11T05:25:59.674Z,100.00
2022-12-11T05:28:27.605Z,100.00
2022-12-11T05:30:58.080Z,100.00
2022-12-11T05:33:25.214Z,100.00
2022-12-11T05:35:51.904Z,100.00
2022-12-11T05:38:18.443Z,100.00
2022-12-11T05:40:45.130Z,100.00
2022-12-11T05:43:11.608Z,100.00
2022-12-11T05:45:38.379Z,100.00
2022-12-11T05:48:04.976Z,100.00
2022-12-11T05:50:31.485Z,100.00
2022-12-11T05:52:58.192Z,100.00
2022-12-11T05:55:24.716Z,100.00
2022-12-11T05:57:51.191Z,100.00
2022-12-11T06:00:17.756Z,100.00
2022-12-11T06:02:44.438Z,100.00
2022-12-11T06:05:11.341Z,100.00
2022-12-11T06:07:38.016Z,100.00
2022-12-11T06:10:04.837Z,100.00
2022-12-11T06:12:32.137Z,100.00
2022-12-11T06:14:58.704Z,100.00
2022-12-11T06:17:25.195Z,100.00
2022-12-11T06:19:51.768Z,100.00
2022-12-11T06:22:18.239Z,100.00
2022-12-11T06:24:44.760Z,100.00
2022-12-11T06:27:11.307Z,100.00
2022-12-11T06:29:37.805Z,100.00
2022-12-11T06:32:04.426Z,100.00
2022-12-11T06:34:30.997Z,100.00
2022-12-11T06:36:57.556Z,100.00
2022-12-11T06:39:24.092Z,100.00
2022-12-11T06:41:50.631Z,100.00
2022-12-11T06:44:17.251Z,100.00
2022-12-11T06:46:43.771Z,100.00
2022-12-11T06:49:10.336Z,100.00
2022-12-11T06:51:36.888Z,100.00
2022-12-11T06:54:03.425Z,100.00
2022-12-11T06:56:29.923Z,100.00
2022-12-11T06:58:57.131Z,100.00
2022-12-11T07:01:25.175Z,100.00
2022-12-11T07:03:55.670Z,100.00
2022-12-11T07:06:22.548Z,100.00
2022-12-11T07:08:49.087Z,100.00
2022-12-11T07:11:16.415Z,100.00
2022-12-11T07:13:43.381Z,100.00
2022-12-11T07:16:11.220Z,100.00
2022-12-11T07:18:38.908Z,100.00
2022-12-11T07:21:06.089Z,100.00
2022-12-11T07:23:33.442Z,100.00
2022-12-11T07:26:03.609Z,100.00
2022-12-11T07:28:30.112Z,100.00
2022-12-11T07:30:56.604Z,100.00
2022-12-11T07:33:23.102Z,100.00
2022-12-11T07:35:49.634Z,100.00
2022-12-11T07:38:16.131Z,100.00
2022-12-11T07:40:42.675Z,100.00
2022-12-11T07:43:09.178Z,100.00
2022-12-11T07:45:35.725Z,100.00
2022-12-11T07:48:02.305Z,100.00
2022-12-11T07:50:28.845Z,100.00
2022-12-11T07:52:55.363Z,100.00
2022-12-11T07:55:22.050Z,100.00
2022-12-11T07:57:48.611Z,100.00
2022-12-11T08:00:15.230Z,100.00
2022-12-11T08:02:41.999Z,100.00
2022-12-11T08:05:09.196Z,100.00
2022-12-11T08:07:35.888Z,100.00
2022-12-11T08:10:02.906Z,99.14
2022-12-11T08:12:29.415Z,97.71
2022-12-11T08:14:55.982Z,96.71
2022-12-11T08:17:27.496Z,96.48
2022-12-11T08:19:56.700Z,95.65
2022-12-11T08:22:23.539Z,94.00
2022-12-11T08:24:50.038Z,91.55
2022-12-11T08:27:16.634Z,92.40
2022-12-11T08:29:43.165Z,90.55
2022-12-11T08:32:12.429Z,90.18
2022-12-11T08:34:39.432Z,89.60
2022-12-11T08:37:05.922Z,89.70
2022-12-11T08:39:32.504Z,89.04
2022-12-11T08:41:58.982Z,88.75
2022-12-11T08:44:26.888Z,87.37
2022-12-11T08:46:53.376Z,87.73
2022-12-11T08:49:19.826Z,86.84
2022-12-11T08:51:46.434Z,87.42
2022-12-11T08:54:13.172Z,86.79
2022-12-11T08:56:39.657Z,85.62
2022-12-11T08:59:06.331Z,84.96
2022-12-11T09:01:33.245Z,84.47
2022-12-11T09:03:59.855Z,85.17
2022-12-11T09:06:27.746Z,85.24
2022-12-11T09:08:54.824Z,85.52
2022-12-11T09:11:25.870Z,84.87
2022-12-11T09:13:52.757Z,84.13
2022-12-11T09:16:21.008Z,83.51
2022-12-11T09:18:48.180Z,83.70
2022-12-11T09:21:16.428Z,83.57
2022-12-11T09:23:43.005Z,82.05
2022-12-11T09:26:11.366Z,82.19
2022-12-11T09:28:42.723Z,82.03
2022-12-11T09:31:14.168Z,81.88
2022-12-11T09:33:40.719Z,81.31
2022-12-11T09:36:07.499Z,80.83
2022-12-11T09:38:34.810Z,81.14
2022-12-11T09:41:01.398Z,79.28
2022-12-11T09:43:38.222Z,79.53
2022-12-11T09:46:05.852Z,79.91
2022-12-11T09:48:34.200Z,79.23
2022-12-11T09:51:05.629Z,78.86
2022-12-11T09:53:34.834Z,79.52
2022-12-11T09:56:15.843Z,78.98
2022-12-11T09:58:42.350Z,78.42
2022-12-11T10:01:11.999Z,77.67
2022-12-11T10:03:56.815Z,76.68
2022-12-11T10:06:26.994Z,76.51
2022-12-11T10:08:53.521Z,76.70
2022-12-11T10:11:31.752Z,76.01
2022-12-11T10:14:07.402Z,75.71
2022-12-11T10:16:40.377Z,75.47
2022-12-11T10:19:15.283Z,75.54
2022-12-11T10:21:42.608Z,75.39
2022-12-11T10:28:12.405Z,75.50
2022-12-11T10:34:45.817Z,73.75
2022-12-11T10:37:53.585Z,72.84
2022-12-11T10:40:58.470Z,73.67
2022-12-11T10:43:47.584Z,74.08
2022-12-11T10:46:25.369Z,73.23
2022-12-11T10:48:55.592Z,72.94
2022-12-11T10:51:40.479Z,72.86
2022-12-11T10:54:16.542Z,72.30
2022-12-11T10:56:45.764Z,73.69
2022-12-11T10:59:50.569Z,73.87
2022-12-11T11:02:39.181Z,73.66
2022-12-11T11:05:19.507Z,74.53
2022-12-11T11:12:05.969Z,72.59
2022-12-11T11:19:56.642Z,72.03
2022-12-11T11:23:00.367Z,73.62
2022-12-11T11:25:35.809Z,72.33
2022-12-11T11:28:48.879Z,70.12
2022-12-11T11:31:23.055Z,69.44
2022-12-11T11:34:19.595Z,68.89
2022-12-11T11:36:57.890Z,69.03
2022-12-11T11:39:33.812Z,69.34
2022-12-11T11:45:57.708Z,67.63
2022-12-11T11:48:24.236Z,67.79
2022-12-11T11:50:52.065Z,67.00
2022-12-11T11:53:33.384Z,66.57
2022-12-11T11:56:03.126Z,66.41
2022-12-11T11:58:39.077Z,67.21
2022-12-11T12:01:09.736Z,65.67
2022-12-11T12:03:36.315Z,65.78
2022-12-11T12:06:14.699Z,66.34
2022-12-11T12:08:51.123Z,66.20
2022-12-11T12:11:20.494Z,66.85
2022-12-11T12:13:56.868Z,65.38
2022-12-11T12:16:52.799Z,66.40
2022-12-11T12:19:22.707Z,66.25
2022-12-11T12:21:51.159Z,66.29
2022-12-11T12:24:26.924Z,67.38
2022-12-11T12:27:00.473Z,66.51
2022-12-11T12:29:40.040Z,67.32
2022-12-11T12:32:29.641Z,67.48
2022-12-11T12:35:07.210Z,67.71
2022-12-11T12:37:52.336Z,67.34
2022-12-11T12:40:24.765Z,69.05
2022-12-11T12:42:51.280Z,69.89
2022-12-11T12:45:25.787Z,71.30
2022-12-11T12:47:53.649Z,70.15
2022-12-11T12:50:22.723Z,69.74
2022-12-11T12:52:51.268Z,70.53
2022-12-11T12:55:18.995Z,71.06
2022-12-11T12:57:48.408Z,70.26
2022-12-11T13:00:25.858Z,71.17
2022-12-11T13:02:54.101Z,69.66
2022-12-11T13:05:25.454Z,70.13
2022-12-11T13:07:59.719Z,70.56
2022-12-11T13:10:26.410Z,68.81
2022-12-11T13:12:53.396Z,68.42
2022-12-11T13:15:43.897Z,67.68
2022-12-11T13:18:29.336Z,67.35
2022-12-11T13:20:55.933Z,66.28
2022-12-11T13:23:33.103Z,65.99
2022-12-11T13:26:01.341Z,65.04
2022-12-11T13:28:29.687Z,65.11
2022-12-11T13:31:05.664Z,64.44
2022-12-11T13:33:32.423Z,63.42
2022-12-11T13:36:09.898Z,63.64
2022-12-11T13:38:46.947Z,63.63
2022-12-11T13:41:13.766Z,65.06
2022-12-11T13:43:42.213Z,64.66
2022-12-11T13:46:10.695Z,64.58
2022-12-11T13:48:48.432Z,64.49
2022-12-11T13:51:19.787Z,65.63
2022-12-11T13:53:46.408Z,65.80
2022-12-11T13:56:20.353Z,65.67
2022-12-11T13:58:47.175Z,65.67
2022-12-11T14:01:42.906Z,65.47
2022-12-11T14:04:12.396Z,65.54
2022-12-11T14:06:39.782Z,65.11
2022-12-11T14:09:07.210Z,66.47
2022-12-11T14:11:43.361Z,65.93
2022-12-11T14:14:23.727Z,65.54
2022-12-11T14:16:51.618Z,65.42
2022-12-11T14:19:19.831Z,64.72
2022-12-11T14:22:00.127Z,65.47
2022-12-11T14:24:26.625Z,65.53
2022-12-11T14:26:53.643Z,64.88
2022-12-11T14:29:26.816Z,65.12
2022-12-11T14:31:54.058Z,65.52
2022-12-11T14:34:25.939Z,66.34
2022-12-11T14:36:53.334Z,66.21
2022-12-11T14:39:33.957Z,66.28
2022-12-11T14:42:03.653Z,67.17
2022-12-11T14:44:32.548Z,66.73
2022-12-11T14:47:01.678Z,66.67
2022-12-11T14:49:47.632Z,66.72
2022-12-11T14:52:23.536Z,66.17
2022-12-11T14:54:56.989Z,66.89
2022-12-11T14:57:26.694Z,67.77
2022-12-11T14:59:54.091Z,68.16
2022-12-11T15:02:34.592Z,69.41
2022-12-11T15:05:11.598Z,69.79
2022-12-11T15:07:38.234Z,70.13
2022-12-11T15:10:05.190Z,70.39
2022-12-11T15:12:32.064Z,70.58
2022-12-11T15:15:03.509Z,70.54
2022-12-11T15:17:30.188Z,70.62
2022-12-11T15:20:02.127Z,70.73
2022-12-11T15:22:31.303Z,69.76
2022-12-11T15:24:58.001Z,69.27
2022-12-11T15:27:30.855Z,70.07
2022-12-11T15:29:57.432Z,70.32
2022-12-11T15:32:24.552Z,70.37
2022-12-11T15:34:52.541Z,69.27
2022-12-11T15:37:26.832Z,70.29
2022-12-11T15:39:54.142Z,69.80
2022-12-11T15:42:24.360Z,69.53
2022-12-11T15:44:51.250Z,69.19
2022-12-11T15:47:21.035Z,68.59
2022-12-11T15:49:47.691Z,69.03
2022-12-11T15:52:14.230Z,69.46
2022-12-11T15:54:40.745Z,69.27
2022-12-11T15:57:11.373Z,69.76
2022-12-11T15:59:37.871Z,69.69
2022-12-11T16:02:09.736Z,69.51
2022-12-11T16:04:36.266Z,69.34
2022-12-11T16:07:02.785Z,67.69
2022-12-11T16:09:29.398Z,67.28
2022-12-11T16:11:56.204Z,68.45
2022-12-11T16:14:22.770Z,66.99
2022-12-11T16:16:49.379Z,66.41
2022-12-11T16:19:15.879Z,66.61
2022-12-11T16:21:42.378Z,65.75
2022-12-11T16:24:08.867Z,65.85
2022-12-11T16:26:35.383Z,64.93
2022-12-11T16:29:02.163Z,65.38
2022-12-11T16:31:28.948Z,64.62
2022-12-11T16:33:55.492Z,64.91
2022-12-11T16:36:22.178Z,63.90
2022-12-11T16:38:53.621Z,62.90
2022-12-11T16:41:21.187Z,63.41
2022-12-11T16:43:47.697Z,62.85
2022-12-11T16:46:17.244Z,62.66
2022-12-11T16:48:44.371Z,63.45
2022-12-11T16:51:10.894Z,62.53
2022-12-11T16:53:37.421Z,62.46
2022-12-11T16:56:05.225Z,63.07
2022-12-11T16:58:31.739Z,62.95
2022-12-11T17:01:02.001Z,62.61
2022-12-11T17:03:30.115Z,63.31
2022-12-11T17:05:57.708Z,62.54
2022-12-11T17:08:25.246Z,62.81
2022-12-11T17:10:52.072Z,61.64
2022-12-11T17:13:18.722Z,61.51
2022-12-11T17:15:45.371Z,61.70
2022-12-11T17:18:12.058Z,62.10
2022-12-11T17:20:42.076Z,62.43
2022-12-11T17:23:10.597Z,63.07
2022-12-11T17:25:43.853Z,62.53
2022-12-11T17:28:10.812Z,62.58
2022-12-11T17:30:41.364Z,63.49
2022-12-11T17:33:08.208Z,63.29
2022-12-11T17:35:34.728Z,63.74
2022-12-11T17:38:01.375Z,64.02
2022-12-11T17:40:29.184Z,63.74
2022-12-11T17:42:55.712Z,64.81
2022-12-11T17:45:22.312Z,64.61
2022-12-11T17:47:49.133Z,64.69
2022-12-11T17:50:15.678Z,64.96
2022-12-11T17:52:44.346Z,64.04
2022-12-11T17:55:11.544Z,64.15
2022-12-11T17:57:39.011Z,65.53
2022-12-11T18:00:06.831Z,65.66
2022-12-11T18:02:38.949Z,64.44
2022-12-11T18:05:06.325Z,64.61
2022-12-11T18:07:35.583Z,64.68
2022-12-11T18:10:02.169Z,64.75
2022-12-11T18:12:31.147Z,64.60
2022-12-11T18:15:04.684Z,64.37
2022-12-11T18:17:31.482Z,63.82
2022-12-11T18:19:58.015Z,63.98
2022-12-11T18:22:25.419Z,64.73
2022-12-11T18:24:51.940Z,64.36
2022-12-11T18:27:18.569Z,64.27
2022-12-11T18:29:45.117Z,64.79
2022-12-11T18:32:11.634Z,63.96
2022-12-11T18:34:38.176Z,65.30
2022-12-11T18:37:04.773Z,65.78
2022-12-11T18:39:31.572Z,67.14
2022-12-11T18:42:24.389Z,67.31
2022-12-11T18:44:46.418Z,69.13
2022-12-11T18:47:12.954Z,70.28
2022-12-11T18:49:39.764Z,71.38
2022-12-11T18:52:06.343Z,72.01
2022-12-11T18:54:32.940Z,72.74
2022-12-11T18:56:59.633Z,73.91
2022-12-11T18:59:26.469Z,75.47
2022-12-11T19:01:53.044Z,76.52
2022-12-11T19:04:19.638Z,78.51
2022-12-11T19:06:46.259Z,80.30
2022-12-11T19:09:12.784Z,82.61
2022-12-11T19:11:40.503Z,84.45
2022-12-11T19:14:07.632Z,85.58
2022-12-11T19:16:41.801Z,87.34
2022-12-11T19:19:12.975Z,87.99
2022-12-11T19:21:39.925Z,88.86
2022-12-11T19:24:07.793Z,89.29
2022-12-11T19:26:34.555Z,90.02
2022-12-11T19:29:01.460Z,90.77
2022-12-11T19:31:29.492Z,90.49
2022-12-11T19:33:56.693Z,91.74
2022-12-11T19:36:24.450Z,91.42
2022-12-11T19:38:51.885Z,91.87
2022-12-11T19:41:20.039Z,92.82
2022-12-11T19:43:46.595Z,92.22
2022-12-11T19:46:13.605Z,92.00
2022-12-11T19:48:41.734Z,91.42
2022-12-11T19:51:09.363Z,91.95
2022-12-11T19:53:36.359Z,91.71
2022-12-11T19:56:03.889Z,90.48
2022-12-11T19:58:30.930Z,90.52
2022-12-11T20:00:57.547Z,90.11
2022-12-11T20:03:24.519Z,89.67
2022-12-11T20:05:51.184Z,89.63
2022-12-11T20:08:43.370Z,89.37
2022-12-11T20:11:05.595Z,89.47
2022-12-11T20:13:35.306Z,89.01
2022-12-11T20:16:04.752Z,89.36
2022-12-11T20:18:31.343Z,88.88
2022-12-11T20:21:05.730Z,88.84
2022-12-11T20:23:32.674Z,89.76
2022-12-11T20:25:59.361Z,88.86
2022-12-11T20:28:26.079Z,89.24
2022-12-11T20:30:52.601Z,88.66
2022-12-11T20:33:19.115Z,89.50
2022-12-11T20:35:46.052Z,88.82
2022-12-11T20:38:12.770Z,88.99
2022-12-11T20:40:39.350Z,88.60
2022-12-11T20:43:05.908Z,88.49
2022-12-11T20:45:32.599Z,88.71
2022-12-11T20:47:59.094Z,88.56
2022-12-11T20:50:25.615Z,88.10
2022-12-11T20:52:52.151Z,88.62
2022-12-11T20:55:18.692Z,88.25
2022-12-11T20:57:45.539Z,88.83
2022-12-11T21:00:12.519Z,88.71
2022-12-11T21:02:39.138Z,88.73
2022-12-11T21:05:06.128Z,89.69
2022-12-11T21:07:32.605Z,89.79
2022-12-11T21:09:59.117Z,90.37
2022-12-11T21:12:31.325Z,91.32
2022-12-11T21:14:58.262Z,91.90
2022-12-11T21:17:24.921Z,91.98
2022-12-11T21:19:51.403Z,92.53
2022-12-11T21:22:17.933Z,94.01
2022-12-11T21:24:44.445Z,94.62
2022-12-11T21:27:11.064Z,95.08
2022-12-11T21:29:37.628Z,95.46
2022-12-11T21:32:04.326Z,95.87
2022-12-11T21:34:30.871Z,96.90
2022-12-11T21:36:57.541Z,96.81
2022-12-11T21:39:24.874Z,97.49
2022-12-11T21:41:52.466Z,97.88
2022-12-11T21:47:05.499Z,97.58
2022-12-11T21:49:32.080Z,99.01
2022-12-11T21:51:59.007Z,98.92
2022-12-11T21:54:25.525Z,98.77
2022-12-11T21:56:52.088Z,98.85
2022-12-11T21:59:18.695Z,98.80
2022-12-11T22:01:46.118Z,100.00
2022-12-11T22:04:13.641Z,100.00
2022-12-11T22:06:43.664Z,100.00
2022-12-11T22:09:12.449Z,100.00
2022-12-11T22:11:39.565Z,100.00
2022-12-11T22:14:06.922Z,100.00
2022-12-11T22:16:34.598Z,100.00
2022-12-11T22:19:01.225Z,100.00
2022-12-11T22:21:28.052Z,100.00
2022-12-11T22:23:54.587Z,100.00
2022-12-11T22:26:23.269Z,100.00
2022-12-11T22:28:50.361Z,100.00
2022-12-11T22:31:19.712Z,99.59
2022-12-11T22:33:46.908Z,99.17
2022-12-11T22:36:13.455Z,98.98
2022-12-11T22:38:40.125Z,98.28
2022-12-11T22:41:26.232Z,97.31
2022-12-11T22:43:53.183Z,95.85
2022-12-11T22:46:21.501Z,96.31
2022-12-11T22:48:48.381Z,95.09
2022-12-11T22:51:15.366Z,94.81
2022-12-11T22:53:42.212Z,95.54
2022-12-11T22:56:09.571Z,95.47
2022-12-11T22:58:36.494Z,94.72
2022-12-11T23:01:03.941Z,95.56
2022-12-11T23:03:30.521Z,94.91
2022-12-11T23:05:59.747Z,93.17
2022-12-11T23:08:30.450Z,92.11
2022-12-11T23:10:57.117Z,91.85
2022-12-11T23:13:23.611Z,92.61
2022-12-11T23:15:50.155Z,92.55
2022-12-11T23:18:16.650Z,93.13
2022-12-11T23:20:44.927Z,92.93
2022-12-11T23:23:11.495Z,92.55
2022-12-11T23:25:38.045Z,92.85
2022-12-11T23:28:04.717Z,92.06
2022-12-11T23:30:31.348Z,92.62
2022-12-11T23:32:57.910Z,91.19
2022-12-11T23:35:24.480Z,90.42
2022-12-11T23:37:53.492Z,89.36
2022-12-11T23:40:20.168Z,89.80
2022-12-11T23:42:46.719Z,90.34
2022-12-11T23:45:13.458Z,90.13
2022-12-11T23:47:40.216Z,89.65
2022-12-11T23:50:06.932Z,89.44
2022-12-11T23:52:33.573Z,89.49
2022-12-11T23:55:00.116Z,88.83
2022-12-11T23:57:26.640Z,88.86
2022-12-11T23:59:53.230Z,88.46
